sensor_id;sensor_type;location;lat;lon;timestamp;P1;durP1;ratioP1;P2;durP2;ratioP2
65035;SDS011;51603;49.300;8.880;2023-05-03T00:00:35;7.67;;;5.97;;
65035;SDS011;51603;49.300;8.880;2023-05-03T00:03:03;6.73;;;5.17;;
65035;SDS011;51603;49.300;8.880;2023-05-03T00:05:30;7.07;;;6.37;;
65035;SDS011;51603;49.300;8.880;2023-05-03T00:07:56;8.33;;;6.30;;
65035;SDS011;51603;49.300;8.880;2023-05-03T00:10:22;5.70;;;5.20;;
65035;SDS011;51603;49.300;8.880;2023-05-03T00:12:48;6.83;;;6.20;;
65035;SDS011;51603;49.300;8.880;2023-05-03T00:15:14;6.83;;;5.83;;
65035;SDS011;51603;49.300;8.880;2023-05-03T00:17:39;7.20;;;6.50;;
65035;SDS011;51603;49.300;8.880;2023-05-03T00:20:05;5.50;;;5.00;;
65035;SDS011;51603;49.300;8.880;2023-05-03T00:22:32;7.37;;;5.53;;
65035;SDS011;51603;49.300;8.880;2023-05-03T00:24:58;8.60;;;6.57;;
65035;SDS011;51603;49.300;8.880;2023-05-03T00:27:24;6.40;;;5.80;;
65035;SDS011;51603;49.300;8.880;2023-05-03T00:29:50;6.60;;;6.00;;
65035;SDS011;51603;49.300;8.880;2023-05-03T00:32:16;6.20;;;5.50;;
65035;SDS011;51603;49.300;8.880;2023-05-03T00:34:44;6.77;;;6.07;;
65035;SDS011;51603;49.300;8.880;2023-05-03T00:37:10;5.63;;;5.13;;
65035;SDS011;51603;49.300;8.880;2023-05-03T00:39:36;6.33;;;5.73;;
65035;SDS011;51603;49.300;8.880;2023-05-03T00:42:01;5.90;;;5.40;;
65035;SDS011;51603;49.300;8.880;2023-05-03T00:44:28;6.33;;;5.67;;
65035;SDS011;51603;49.300;8.880;2023-05-03T00:46:54;6.37;;;5.77;;
65035;SDS011;51603;49.300;8.880;2023-05-03T00:49:20;7.73;;;6.97;;
65035;SDS011;51603;49.300;8.880;2023-05-03T00:51:48;6.37;;;5.77;;
65035;SDS011;51603;49.300;8.880;2023-05-03T00:54:14;6.73;;;6.10;;
65035;SDS011;51603;49.300;8.880;2023-05-03T00:56:40;6.87;;;6.07;;
65035;SDS011;51603;49.300;8.880;2023-05-03T00:59:06;8.53;;;6.80;;
65035;SDS011;51603;49.300;8.880;2023-05-03T01:01:32;6.93;;;5.97;;
65035;SDS011;51603;49.300;8.880;2023-05-03T01:03:59;10.13;;;5.90;;
65035;SDS011;51603;49.300;8.880;2023-05-03T01:06:31;8.60;;;6.03;;
65035;SDS011;51603;49.300;8.880;2023-05-03T01:09:02;6.37;;;5.77;;
65035;SDS011;51603;49.300;8.880;2023-05-03T01:14:47;11.57;;;6.43;;
65035;SDS011;51603;49.300;8.880;2023-05-03T01:17:15;6.47;;;5.87;;
65035;SDS011;51603;49.300;8.880;2023-05-03T01:19:50;7.90;;;5.70;;
65035;SDS011;51603;49.300;8.880;2023-05-03T01:22:41;7.23;;;6.53;;
65035;SDS011;51603;49.300;8.880;2023-05-03T01:25:14;6.73;;;5.00;;
65035;SDS011;51603;49.300;8.880;2023-05-03T01:27:40;9.97;;;6.93;;
65035;SDS011;51603;49.300;8.880;2023-05-03T01:30:07;9.47;;;6.07;;
65035;SDS011;51603;49.300;8.880;2023-05-03T01:35:19;6.80;;;6.07;;
65035;SDS011;51603;49.300;8.880;2023-05-03T01:38:04;9.00;;;7.43;;
65035;SDS011;51603;49.300;8.880;2023-05-03T01:40:31;6.83;;;6.13;;
65035;SDS011;51603;49.300;8.880;2023-05-03T01:43:00;8.50;;;7.20;;
65035;SDS011;51603;49.300;8.880;2023-05-03T01:45:27;7.60;;;6.87;;
65035;SDS011;51603;49.300;8.880;2023-05-03T01:47:52;8.40;;;6.70;;
65035;SDS011;51603;49.300;8.880;2023-05-03T01:50:20;8.03;;;7.00;;
65035;SDS011;51603;49.300;8.880;2023-05-03T01:52:46;7.10;;;6.40;;
65035;SDS011;51603;49.300;8.880;2023-05-03T01:55:11;7.30;;;5.67;;
65035;SDS011;51603;49.300;8.880;2023-05-03T01:57:37;6.93;;;6.33;;
65035;SDS011;51603;49.300;8.880;2023-05-03T02:00:03;6.20;;;5.60;;
65035;SDS011;51603;49.300;8.880;2023-05-03T02:02:29;10.13;;;7.57;;
65035;SDS011;51603;49.300;8.880;2023-05-03T02:04:54;9.63;;;6.67;;
65035;SDS011;51603;49.300;8.880;2023-05-03T02:07:20;7.77;;;6.53;;
65035;SDS011;51603;49.300;8.880;2023-05-03T02:09:46;7.50;;;6.73;;
65035;SDS011;51603;49.300;8.880;2023-05-03T02:12:11;7.97;;;7.17;;
65035;SDS011;51603;49.300;8.880;2023-05-03T02:14:37;8.13;;;6.70;;
65035;SDS011;51603;49.300;8.880;2023-05-03T02:17:02;6.90;;;6.20;;
65035;SDS011;51603;49.300;8.880;2023-05-03T02:19:28;8.23;;;7.43;;
65035;SDS011;51603;49.300;8.880;2023-05-03T02:21:53;7.43;;;6.63;;
65035;SDS011;51603;49.300;8.880;2023-05-03T02:24:20;8.17;;;6.40;;
65035;SDS011;51603;49.300;8.880;2023-05-03T02:26:47;8.27;;;6.83;;
65035;SDS011;51603;49.300;8.880;2023-05-03T02:29:13;7.70;;;6.80;;
65035;SDS011;51603;49.300;8.880;2023-05-03T02:31:38;13.13;;;7.20;;
65035;SDS011;51603;49.300;8.880;2023-05-03T02:34:04;11.50;;;7.77;;
65035;SDS011;51603;49.300;8.880;2023-05-03T02:36:29;8.10;;;7.30;;
65035;SDS011;51603;49.300;8.880;2023-05-03T02:38:55;8.03;;;7.20;;
65035;SDS011;51603;49.300;8.880;2023-05-03T02:41:20;7.80;;;6.97;;
65035;SDS011;51603;49.300;8.880;2023-05-03T02:43:47;8.83;;;7.57;;
65035;SDS011;51603;49.300;8.880;2023-05-03T02:46:12;8.70;;;6.87;;
65035;SDS011;51603;49.300;8.880;2023-05-03T02:48:38;7.10;;;6.40;;
65035;SDS011;51603;49.300;8.880;2023-05-03T02:51:04;10.20;;;7.80;;
65035;SDS011;51603;49.300;8.880;2023-05-03T02:53:30;7.57;;;6.13;;
65035;SDS011;51603;49.300;8.880;2023-05-03T02:55:55;7.27;;;6.57;;
65035;SDS011;51603;49.300;8.880;2023-05-03T02:58:21;6.03;;;5.47;;
65035;SDS011;51603;49.300;8.880;2023-05-03T03:00:47;9.40;;;6.90;;
65035;SDS011;51603;49.300;8.880;2023-05-03T03:03:12;7.57;;;6.80;;
65035;SDS011;51603;49.300;8.880;2023-05-03T03:05:38;8.40;;;6.27;;
65035;SDS011;51603;49.300;8.880;2023-05-03T03:08:03;8.27;;;7.03;;
65035;SDS011;51603;49.300;8.880;2023-05-03T03:10:29;13.40;;;8.70;;
65035;SDS011;51603;49.300;8.880;2023-05-03T03:12:55;7.20;;;6.50;;
65035;SDS011;51603;49.300;8.880;2023-05-03T03:15:20;8.80;;;6.80;;
65035;SDS011;51603;49.300;8.880;2023-05-03T03:17:46;7.70;;;6.90;;
65035;SDS011;51603;49.300;8.880;2023-05-03T03:20:11;7.13;;;6.53;;
65035;SDS011;51603;49.300;8.880;2023-05-03T03:22:37;8.70;;;7.50;;
65035;SDS011;51603;49.300;8.880;2023-05-03T03:25:04;7.60;;;6.90;;
65035;SDS011;51603;49.300;8.880;2023-05-03T03:27:30;7.53;;;6.27;;
65035;SDS011;51603;49.300;8.880;2023-05-03T03:29:56;9.80;;;6.77;;
65035;SDS011;51603;49.300;8.880;2023-05-03T03:32:22;9.73;;;7.20;;
65035;SDS011;51603;49.300;8.880;2023-05-03T03:34:48;8.90;;;7.50;;
65035;SDS011;51603;49.300;8.880;2023-05-03T03:37:13;9.00;;;8.00;;
65035;SDS011;51603;49.300;8.880;2023-05-03T03:39:39;8.93;;;8.07;;
65035;SDS011;51603;49.300;8.880;2023-05-03T03:42:06;7.90;;;7.10;;
65035;SDS011;51603;49.300;8.880;2023-05-03T03:44:31;10.20;;;8.77;;
65035;SDS011;51603;49.300;8.880;2023-05-03T03:46:57;7.47;;;6.77;;
65035;SDS011;51603;49.300;8.880;2023-05-03T03:49:22;8.27;;;7.07;;
65035;SDS011;51603;49.300;8.880;2023-05-03T03:51:48;8.27;;;7.17;;
65035;SDS011;51603;49.300;8.880;2023-05-03T03:54:14;10.00;;;8.30;;
65035;SDS011;51603;49.300;8.880;2023-05-03T03:56:39;9.30;;;8.13;;
65035;SDS011;51603;49.300;8.880;2023-05-03T03:59:05;10.47;;;8.47;;
65035;SDS011;51603;49.300;8.880;2023-05-03T04:01:32;8.20;;;7.40;;
65035;SDS011;51603;49.300;8.880;2023-05-03T04:03:57;9.53;;;7.73;;
65035;SDS011;51603;49.300;8.880;2023-05-03T04:06:23;12.77;;;7.60;;
65035;SDS011;51603;49.300;8.880;2023-05-03T04:08:49;9.57;;;8.57;;
65035;SDS011;51603;49.300;8.880;2023-05-03T04:11:14;8.90;;;7.57;;
65035;SDS011;51603;49.300;8.880;2023-05-03T04:13:40;10.47;;;8.00;;
65035;SDS011;51603;49.300;8.880;2023-05-03T04:16:06;11.47;;;7.00;;
65035;SDS011;51603;49.300;8.880;2023-05-03T04:18:32;8.37;;;7.50;;
65035;SDS011;51603;49.300;8.880;2023-05-03T04:20:57;12.73;;;7.43;;
65035;SDS011;51603;49.300;8.880;2023-05-03T04:23:23;9.87;;;7.87;;
65035;SDS011;51603;49.300;8.880;2023-05-03T04:25:48;11.30;;;8.77;;
65035;SDS011;51603;49.300;8.880;2023-05-03T04:28:14;12.43;;;8.47;;
65035;SDS011;51603;49.300;8.880;2023-05-03T04:30:40;8.30;;;7.47;;
65035;SDS011;51603;49.300;8.880;2023-05-03T04:33:08;9.30;;;8.00;;
65035;SDS011;51603;49.300;8.880;2023-05-03T04:35:34;9.60;;;7.10;;
65035;SDS011;51603;49.300;8.880;2023-05-03T04:38:00;7.80;;;7.00;;
65035;SDS011;51603;49.300;8.880;2023-05-03T04:40:27;10.80;;;8.27;;
65035;SDS011;51603;49.300;8.880;2023-05-03T04:42:52;9.70;;;8.17;;
65035;SDS011;51603;49.300;8.880;2023-05-03T04:45:18;11.27;;;8.87;;
65035;SDS011;51603;49.300;8.880;2023-05-03T04:47:44;9.23;;;8.07;;
65035;SDS011;51603;49.300;8.880;2023-05-03T04:50:11;10.20;;;9.07;;
65035;SDS011;51603;49.300;8.880;2023-05-03T04:52:37;10.73;;;7.60;;
65035;SDS011;51603;49.300;8.880;2023-05-03T04:55:03;10.53;;;8.27;;
65035;SDS011;51603;49.300;8.880;2023-05-03T04:57:29;12.30;;;8.90;;
65035;SDS011;51603;49.300;8.880;2023-05-03T04:59:56;13.03;;;8.53;;
65035;SDS011;51603;49.300;8.880;2023-05-03T05:02:22;9.77;;;8.43;;
65035;SDS011;51603;49.300;8.880;2023-05-03T05:04:47;18.00;;;8.90;;
65035;SDS011;51603;49.300;8.880;2023-05-03T05:07:13;10.67;;;9.57;;
65035;SDS011;51603;49.300;8.880;2023-05-03T05:09:39;9.57;;;8.43;;
65035;SDS011;51603;49.300;8.880;2023-05-03T05:12:04;14.00;;;9.70;;
65035;SDS011;51603;49.300;8.880;2023-05-03T05:14:30;10.10;;;8.90;;
65035;SDS011;51603;49.300;8.880;2023-05-03T05:16:56;10.63;;;9.63;;
65035;SDS011;51603;49.300;8.880;2023-05-03T05:19:22;11.57;;;9.43;;
65035;SDS011;51603;49.300;8.880;2023-05-03T05:21:47;10.60;;;9.37;;
65035;SDS011;51603;49.300;8.880;2023-05-03T05:24:13;10.53;;;9.40;;
65035;SDS011;51603;49.300;8.880;2023-05-03T05:26:40;13.73;;;9.53;;
65035;SDS011;51603;49.300;8.880;2023-05-03T05:29:06;11.93;;;9.80;;
65035;SDS011;51603;49.300;8.880;2023-05-03T05:31:32;9.47;;;8.47;;
65035;SDS011;51603;49.300;8.880;2023-05-03T05:33:58;11.10;;;8.80;;
65035;SDS011;51603;49.300;8.880;2023-05-03T05:36:24;13.60;;;9.07;;
65035;SDS011;51603;49.300;8.880;2023-05-03T05:38:50;16.00;;;10.53;;
65035;SDS011;51603;49.300;8.880;2023-05-03T05:41:16;15.83;;;10.10;;
65035;SDS011;51603;49.300;8.880;2023-05-03T05:43:41;13.30;;;10.60;;
65035;SDS011;51603;49.300;8.880;2023-05-03T05:46:07;12.47;;;10.00;;
65035;SDS011;51603;49.300;8.880;2023-05-03T05:48:32;10.20;;;8.73;;
65035;SDS011;51603;49.300;8.880;2023-05-03T05:50:58;12.43;;;10.53;;
65035;SDS011;51603;49.300;8.880;2023-05-03T05:53:24;13.40;;;10.00;;
65035;SDS011;51603;49.300;8.880;2023-05-03T05:55:49;11.50;;;10.10;;
65035;SDS011;51603;49.300;8.880;2023-05-03T05:58:15;13.37;;;10.03;;
65035;SDS011;51603;49.300;8.880;2023-05-03T06:00:41;9.90;;;8.90;;
65035;SDS011;51603;49.300;8.880;2023-05-03T06:03:06;16.50;;;8.70;;
65035;SDS011;51603;49.300;8.880;2023-05-03T06:05:32;15.90;;;10.70;;
65035;SDS011;51603;49.300;8.880;2023-05-03T06:07:57;15.23;;;11.00;;
65035;SDS011;51603;49.300;8.880;2023-05-03T06:10:23;11.00;;;9.53;;
65035;SDS011;51603;49.300;8.880;2023-05-03T06:12:49;12.13;;;10.20;;
65035;SDS011;51603;49.300;8.880;2023-05-03T06:15:15;11.53;;;9.20;;
65035;SDS011;51603;49.300;8.880;2023-05-03T06:17:40;14.30;;;10.40;;
65035;SDS011;51603;49.300;8.880;2023-05-03T06:20:06;11.43;;;9.70;;
65035;SDS011;51603;49.300;8.880;2023-05-03T06:22:38;14.63;;;10.73;;
65035;SDS011;51603;49.300;8.880;2023-05-03T06:25:04;14.67;;;10.13;;
65035;SDS011;51603;49.300;8.880;2023-05-03T06:27:31;14.73;;;10.10;;
65035;SDS011;51603;49.300;8.880;2023-05-03T06:29:57;16.33;;;10.90;;
65035;SDS011;51603;49.300;8.880;2023-05-03T06:32:22;12.17;;;10.97;;
65035;SDS011;51603;49.300;8.880;2023-05-03T06:34:48;12.43;;;10.03;;
65035;SDS011;51603;49.300;8.880;2023-05-03T06:37:14;13.97;;;10.37;;
65035;SDS011;51603;49.300;8.880;2023-05-03T06:39:40;14.70;;;8.83;;
65035;SDS011;51603;49.300;8.880;2023-05-03T06:42:06;12.23;;;8.70;;
65035;SDS011;51603;49.300;8.880;2023-05-03T06:44:32;9.30;;;7.90;;
65035;SDS011;51603;49.300;8.880;2023-05-03T06:46:57;8.97;;;8.10;;
65035;SDS011;51603;49.300;8.880;2023-05-03T06:49:23;11.30;;;8.43;;
65035;SDS011;51603;49.300;8.880;2023-05-03T06:51:48;17.30;;;9.93;;
65035;SDS011;51603;49.300;8.880;2023-05-03T06:54:14;10.17;;;8.37;;
65035;SDS011;51603;49.300;8.880;2023-05-03T06:56:40;9.73;;;8.53;;
65035;SDS011;51603;49.300;8.880;2023-05-03T06:59:05;9.53;;;7.80;;
65035;SDS011;51603;49.300;8.880;2023-05-03T07:01:32;13.47;;;8.10;;
65035;SDS011;51603;49.300;8.880;2023-05-03T07:03:58;12.10;;;8.83;;
65035;SDS011;51603;49.300;8.880;2023-05-03T07:06:24;14.23;;;10.30;;
65035;SDS011;51603;49.300;8.880;2023-05-03T07:08:50;12.17;;;8.30;;
65035;SDS011;51603;49.300;8.880;2023-05-03T07:11:16;9.20;;;8.20;;
65035;SDS011;51603;49.300;8.880;2023-05-03T07:13:43;10.77;;;8.47;;
65035;SDS011;51603;49.300;8.880;2023-05-03T07:16:08;11.90;;;7.50;;
65035;SDS011;51603;49.300;8.880;2023-05-03T07:18:34;11.47;;;8.80;;
65035;SDS011;51603;49.300;8.880;2023-05-03T07:21:00;9.83;;;8.23;;
65035;SDS011;51603;49.300;8.880;2023-05-03T07:23:29;10.53;;;8.23;;
65035;SDS011;51603;49.300;8.880;2023-05-03T07:25:55;9.60;;;8.20;;
65035;SDS011;51603;49.300;8.880;2023-05-03T07:28:21;11.43;;;8.50;;
65035;SDS011;51603;49.300;8.880;2023-05-03T07:30:47;10.53;;;8.37;;
65035;SDS011;51603;49.300;8.880;2023-05-03T07:33:13;10.40;;;8.27;;
65035;SDS011;51603;49.300;8.880;2023-05-03T07:35:38;13.70;;;7.97;;
65035;SDS011;51603;49.300;8.880;2023-05-03T07:38:04;13.80;;;9.43;;
65035;SDS011;51603;49.300;8.880;2023-05-03T07:40:29;8.60;;;7.70;;
65035;SDS011;51603;49.300;8.880;2023-05-03T07:42:57;12.47;;;7.53;;
65035;SDS011;51603;49.300;8.880;2023-05-03T07:45:23;7.83;;;7.03;;
65035;SDS011;51603;49.300;8.880;2023-05-03T07:47:49;12.40;;;7.67;;
65035;SDS011;51603;49.300;8.880;2023-05-03T07:50:15;8.60;;;7.63;;
65035;SDS011;51603;49.300;8.880;2023-05-03T07:52:41;8.50;;;7.57;;
65035;SDS011;51603;49.300;8.880;2023-05-03T07:55:07;10.20;;;7.53;;
65035;SDS011;51603;49.300;8.880;2023-05-03T07:57:33;8.77;;;7.70;;
65035;SDS011;51603;49.300;8.880;2023-05-03T07:59:58;10.40;;;7.67;;
65035;SDS011;51603;49.300;8.880;2023-05-03T08:02:24;10.13;;;8.57;;
65035;SDS011;51603;49.300;8.880;2023-05-03T08:04:50;10.20;;;7.80;;
65035;SDS011;51603;49.300;8.880;2023-05-03T08:07:15;9.80;;;8.60;;
65035;SDS011;51603;49.300;8.880;2023-05-03T08:09:41;8.73;;;7.23;;
65035;SDS011;51603;49.300;8.880;2023-05-03T08:12:07;10.80;;;7.70;;
65035;SDS011;51603;49.300;8.880;2023-05-03T08:14:32;8.70;;;7.43;;
65035;SDS011;51603;49.300;8.880;2023-05-03T08:16:58;8.27;;;7.20;;
65035;SDS011;51603;49.300;8.880;2023-05-03T08:19:24;12.03;;;7.93;;
65035;SDS011;51603;49.300;8.880;2023-05-03T08:21:50;11.37;;;9.37;;
65035;SDS011;51603;49.300;8.880;2023-05-03T08:24:18;13.83;;;8.33;;
65035;SDS011;51603;49.300;8.880;2023-05-03T08:26:44;10.63;;;7.70;;
65035;SDS011;51603;49.300;8.880;2023-05-03T08:29:10;9.33;;;7.50;;
65035;SDS011;51603;49.300;8.880;2023-05-03T08:31:36;13.43;;;8.67;;
65035;SDS011;51603;49.300;8.880;2023-05-03T08:34:01;9.43;;;7.63;;
65035;SDS011;51603;49.300;8.880;2023-05-03T08:36:28;7.93;;;7.17;;
65035;SDS011;51603;49.300;8.880;2023-05-03T08:38:55;8.30;;;6.73;;
65035;SDS011;51603;49.300;8.880;2023-05-03T08:41:21;8.63;;;7.73;;
65035;SDS011;51603;49.300;8.880;2023-05-03T08:43:55;8.47;;;7.20;;
65035;SDS011;51603;49.300;8.880;2023-05-03T08:46:21;8.43;;;7.10;;
65035;SDS011;51603;49.300;8.880;2023-05-03T08:48:49;8.70;;;6.67;;
65035;SDS011;51603;49.300;8.880;2023-05-03T08:51:22;9.20;;;7.73;;
65035;SDS011;51603;49.300;8.880;2023-05-03T08:53:48;8.53;;;6.97;;
65035;SDS011;51603;49.300;8.880;2023-05-03T08:56:22;9.37;;;7.50;;
65035;SDS011;51603;49.300;8.880;2023-05-03T08:58:51;8.90;;;7.13;;
65035;SDS011;51603;49.300;8.880;2023-05-03T09:01:17;11.93;;;7.77;;
65035;SDS011;51603;49.300;8.880;2023-05-03T09:03:47;12.10;;;7.20;;
65035;SDS011;51603;49.300;8.880;2023-05-03T09:06:19;12.63;;;7.73;;
65035;SDS011;51603;49.300;8.880;2023-05-03T09:08:50;8.20;;;7.10;;
65035;SDS011;51603;49.300;8.880;2023-05-03T09:11:22;7.87;;;6.40;;
65035;SDS011;51603;49.300;8.880;2023-05-03T09:13:53;8.13;;;6.57;;
65035;SDS011;51603;49.300;8.880;2023-05-03T09:16:32;7.70;;;6.73;;
65035;SDS011;51603;49.300;8.880;2023-05-03T09:18:58;8.67;;;6.50;;
65035;SDS011;51603;49.300;8.880;2023-05-03T09:21:25;10.60;;;7.03;;
65035;SDS011;51603;49.300;8.880;2023-05-03T09:23:51;9.30;;;6.97;;
65035;SDS011;51603;49.300;8.880;2023-05-03T09:26:26;9.07;;;6.30;;
65035;SDS011;51603;49.300;8.880;2023-05-03T09:28:52;8.47;;;6.90;;
65035;SDS011;51603;49.300;8.880;2023-05-03T09:31:18;9.07;;;6.87;;
65035;SDS011;51603;49.300;8.880;2023-05-03T09:33:44;9.87;;;6.73;;
65035;SDS011;51603;49.300;8.880;2023-05-03T09:36:10;6.30;;;5.70;;
65035;SDS011;51603;49.300;8.880;2023-05-03T09:38:35;9.63;;;7.30;;
65035;SDS011;51603;49.300;8.880;2023-05-03T09:41:01;7.93;;;7.13;;
65035;SDS011;51603;49.300;8.880;2023-05-03T09:43:30;10.83;;;7.00;;
65035;SDS011;51603;49.300;8.880;2023-05-03T09:46:08;9.60;;;5.40;;
65035;SDS011;51603;49.300;8.880;2023-05-03T09:48:35;9.10;;;6.60;;
65035;SDS011;51603;49.300;8.880;2023-05-03T09:51:02;8.53;;;6.70;;
65035;SDS011;51603;49.300;8.880;2023-05-03T09:53:32;8.03;;;7.00;;
65035;SDS011;51603;49.300;8.880;2023-05-03T09:55:58;8.10;;;6.90;;
65035;SDS011;51603;49.300;8.880;2023-05-03T09:58:26;7.63;;;6.77;;
65035;SDS011;51603;49.300;8.880;2023-05-03T10:00:54;6.80;;;5.50;;
65035;SDS011;51603;49.300;8.880;2023-05-03T10:03:43;8.87;;;6.67;;
65035;SDS011;51603;49.300;8.880;2023-05-03T10:09:02;6.83;;;5.83;;
65035;SDS011;51603;49.300;8.880;2023-05-03T10:11:53;6.50;;;5.80;;
65035;SDS011;51603;49.300;8.880;2023-05-03T10:14:22;5.97;;;5.47;;
65035;SDS011;51603;49.300;8.880;2023-05-03T10:16:49;7.73;;;6.30;;
65035;SDS011;51603;49.300;8.880;2023-05-03T10:19:28;7.77;;;6.97;;
65035;SDS011;51603;49.300;8.880;2023-05-03T10:22:06;9.20;;;6.70;;
65035;SDS011;51603;49.300;8.880;2023-05-03T10:24:33;7.70;;;6.50;;
65035;SDS011;51603;49.300;8.880;2023-05-03T10:27:00;9.27;;;5.60;;
65035;SDS011;51603;49.300;8.880;2023-05-03T10:31:59;9.40;;;6.27;;
65035;SDS011;51603;49.300;8.880;2023-05-03T10:34:33;6.97;;;5.73;;
65035;SDS011;51603;49.300;8.880;2023-05-03T10:37:06;9.33;;;5.87;;
65035;SDS011;51603;49.300;8.880;2023-05-03T10:39:34;7.83;;;5.17;;
65035;SDS011;51603;49.300;8.880;2023-05-03T10:42:03;8.07;;;5.03;;
65035;SDS011;51603;49.300;8.880;2023-05-03T10:47:16;12.77;;;5.90;;
65035;SDS011;51603;49.300;8.880;2023-05-03T10:49:43;7.53;;;5.03;;
65035;SDS011;51603;49.300;8.880;2023-05-03T10:52:44;6.87;;;5.20;;
65035;SDS011;51603;49.300;8.880;2023-05-03T10:55:10;8.03;;;5.17;;
65035;SDS011;51603;49.300;8.880;2023-05-03T10:57:42;6.70;;;4.93;;
65035;SDS011;51603;49.300;8.880;2023-05-03T11:05:52;8.43;;;5.83;;
65035;SDS011;51603;49.300;8.880;2023-05-03T11:08:21;6.47;;;4.90;;
65035;SDS011;51603;49.300;8.880;2023-05-03T11:10:55;7.63;;;5.03;;
65035;SDS011;51603;49.300;8.880;2023-05-03T11:13:22;8.03;;;5.20;;
65035;SDS011;51603;49.300;8.880;2023-05-03T11:15:48;8.00;;;5.20;;
65035;SDS011;51603;49.300;8.880;2023-05-03T11:18:14;6.30;;;5.07;;
65035;SDS011;51603;49.300;8.880;2023-05-03T11:20:39;7.20;;;4.43;;
65035;SDS011;51603;49.300;8.880;2023-05-03T11:23:05;11.07;;;5.33;;
65035;SDS011;51603;49.300;8.880;2023-05-03T11:25:31;8.13;;;5.43;;
65035;SDS011;51603;49.300;8.880;2023-05-03T11:27:58;7.70;;;5.03;;
65035;SDS011;51603;49.300;8.880;2023-05-03T11:30:26;6.93;;;5.23;;
65035;SDS011;51603;49.300;8.880;2023-05-03T11:32:52;6.40;;;4.67;;
65035;SDS011;51603;49.300;8.880;2023-05-03T11:35:17;7.83;;;4.70;;
65035;SDS011;51603;49.300;8.880;2023-05-03T11:37:45;7.13;;;4.77;;
65035;SDS011;51603;49.300;8.880;2023-05-03T11:40:14;6.73;;;4.97;;
65035;SDS011;51603;49.300;8.880;2023-05-03T11:42:50;7.20;;;4.50;;
65035;SDS011;51603;49.300;8.880;2023-05-03T11:45:23;7.00;;;4.33;;
65035;SDS011;51603;49.300;8.880;2023-05-03T11:47:51;5.47;;;3.53;;
65035;SDS011;51603;49.300;8.880;2023-05-03T11:50:17;6.70;;;3.80;;
65035;SDS011;51603;49.300;8.880;2023-05-03T11:52:50;7.47;;;4.20;;
65035;SDS011;51603;49.300;8.880;2023-05-03T11:55:16;6.30;;;4.97;;
65035;SDS011;51603;49.300;8.880;2023-05-03T11:57:43;7.50;;;5.23;;
65035;SDS011;51603;49.300;8.880;2023-05-03T12:00:12;6.40;;;3.67;;
65035;SDS011;51603;49.300;8.880;2023-05-03T12:02:41;5.47;;;3.77;;
65035;SDS011;51603;49.300;8.880;2023-05-03T12:05:07;8.73;;;4.37;;
65035;SDS011;51603;49.300;8.880;2023-05-03T12:07:33;5.30;;;4.07;;
65035;SDS011;51603;49.300;8.880;2023-05-03T12:10:10;5.80;;;4.00;;
65035;SDS011;51603;49.300;8.880;2023-05-03T12:12:37;3.90;;;3.10;;
65035;SDS011;51603;49.300;8.880;2023-05-03T12:15:03;7.00;;;2.93;;
65035;SDS011;51603;49.300;8.880;2023-05-03T12:17:36;6.57;;;3.60;;
65035;SDS011;51603;49.300;8.880;2023-05-03T12:20:12;5.70;;;3.90;;
65035;SDS011;51603;49.300;8.880;2023-05-03T12:22:42;7.13;;;3.40;;
65035;SDS011;51603;49.300;8.880;2023-05-03T12:25:07;7.03;;;4.30;;
65035;SDS011;51603;49.300;8.880;2023-05-03T12:27:33;10.50;;;4.37;;
65035;SDS011;51603;49.300;8.880;2023-05-03T12:29:58;6.10;;;3.60;;
65035;SDS011;51603;49.300;8.880;2023-05-03T12:32:24;7.30;;;4.10;;
65035;SDS011;51603;49.300;8.880;2023-05-03T12:34:50;5.87;;;3.63;;
65035;SDS011;51603;49.300;8.880;2023-05-03T12:37:19;5.23;;;3.03;;
65035;SDS011;51603;49.300;8.880;2023-05-03T12:39:45;4.83;;;3.30;;
65035;SDS011;51603;49.300;8.880;2023-05-03T12:42:11;5.37;;;3.00;;
65035;SDS011;51603;49.300;8.880;2023-05-03T12:44:39;8.07;;;3.33;;
65035;SDS011;51603;49.300;8.880;2023-05-03T12:47:06;6.37;;;3.80;;
65035;SDS011;51603;49.300;8.880;2023-05-03T12:49:31;7.80;;;3.70;;
65035;SDS011;51603;49.300;8.880;2023-05-03T12:51:58;6.27;;;3.50;;
65035;SDS011;51603;49.300;8.880;2023-05-03T12:54:24;6.40;;;3.50;;
65035;SDS011;51603;49.300;8.880;2023-05-03T12:56:51;5.90;;;3.47;;
65035;SDS011;51603;49.300;8.880;2023-05-03T12:59:16;5.00;;;2.63;;
65035;SDS011;51603;49.300;8.880;2023-05-03T13:01:42;8.30;;;3.30;;
65035;SDS011;51603;49.300;8.880;2023-05-03T13:04:08;4.63;;;3.30;;
65035;SDS011;51603;49.300;8.880;2023-05-03T13:06:34;6.90;;;3.17;;
65035;SDS011;51603;49.300;8.880;2023-05-03T13:09:00;4.67;;;2.60;;
65035;SDS011;51603;49.300;8.880;2023-05-03T13:11:26;3.83;;;2.70;;
65035;SDS011;51603;49.300;8.880;2023-05-03T13:13:53;4.27;;;2.60;;
65035;SDS011;51603;49.300;8.880;2023-05-03T13:16:18;7.73;;;2.90;;
65035;SDS011;51603;49.300;8.880;2023-05-03T13:18:44;5.30;;;2.80;;
65035;SDS011;51603;49.300;8.880;2023-05-03T13:21:10;6.73;;;3.70;;
65035;SDS011;51603;49.300;8.880;2023-05-03T13:23:36;4.73;;;2.80;;
65035;SDS011;51603;49.300;8.880;2023-05-03T13:26:02;5.20;;;2.70;;
65035;SDS011;51603;49.300;8.880;2023-05-03T13:28:27;4.10;;;2.30;;
65035;SDS011;51603;49.300;8.880;2023-05-03T13:30:53;3.87;;;2.33;;
65035;SDS011;51603;49.300;8.880;2023-05-03T13:33:18;4.80;;;2.83;;
65035;SDS011;51603;49.300;8.880;2023-05-03T13:35:44;4.30;;;3.53;;
65035;SDS011;51603;49.300;8.880;2023-05-03T13:38:10;5.17;;;2.50;;
65035;SDS011;51603;49.300;8.880;2023-05-03T13:40:35;4.40;;;2.30;;
65035;SDS011;51603;49.300;8.880;2023-05-03T13:43:01;6.40;;;2.47;;
65035;SDS011;51603;49.300;8.880;2023-05-03T13:45:27;6.20;;;2.70;;
65035;SDS011;51603;49.300;8.880;2023-05-03T13:47:52;4.40;;;2.40;;
65035;SDS011;51603;49.300;8.880;2023-05-03T13:50:18;4.27;;;2.40;;
65035;SDS011;51603;49.300;8.880;2023-05-03T13:52:43;4.63;;;2.87;;
65035;SDS011;51603;49.300;8.880;2023-05-03T13:55:09;4.77;;;2.67;;
65035;SDS011;51603;49.300;8.880;2023-05-03T13:57:35;3.83;;;2.33;;
65035;SDS011;51603;49.300;8.880;2023-05-03T14:00:00;3.80;;;2.60;;
65035;SDS011;51603;49.300;8.880;2023-05-03T14:02:26;4.03;;;2.80;;
65035;SDS011;51603;49.300;8.880;2023-05-03T14:04:52;3.70;;;2.83;;
65035;SDS011;51603;49.300;8.880;2023-05-03T14:07:18;4.03;;;2.33;;
65035;SDS011;51603;49.300;8.880;2023-05-03T14:09:44;4.27;;;2.43;;
65035;SDS011;51603;49.300;8.880;2023-05-03T14:12:09;3.80;;;2.20;;
65035;SDS011;51603;49.300;8.880;2023-05-03T14:14:35;3.27;;;2.03;;
65035;SDS011;51603;49.300;8.880;2023-05-03T14:17:01;3.00;;;2.37;;
65035;SDS011;51603;49.300;8.880;2023-05-03T14:19:27;4.67;;;3.00;;
65035;SDS011;51603;49.300;8.880;2023-05-03T14:21:56;5.93;;;2.10;;
65035;SDS011;51603;49.300;8.880;2023-05-03T14:24:23;5.10;;;3.23;;
65035;SDS011;51603;49.300;8.880;2023-05-03T14:26:50;3.90;;;2.80;;
65035;SDS011;51603;49.300;8.880;2023-05-03T14:29:16;4.77;;;2.50;;
65035;SDS011;51603;49.300;8.880;2023-05-03T14:31:41;3.33;;;2.70;;
65035;SDS011;51603;49.300;8.880;2023-05-03T14:34:07;6.27;;;2.40;;
65035;SDS011;51603;49.300;8.880;2023-05-03T14:36:33;2.97;;;1.97;;
65035;SDS011;51603;49.300;8.880;2023-05-03T14:39:02;12.13;;;3.37;;
65035;SDS011;51603;49.300;8.880;2023-05-03T14:41:28;4.83;;;2.60;;
65035;SDS011;51603;49.300;8.880;2023-05-03T14:43:56;5.83;;;2.30;;
65035;SDS011;51603;49.300;8.880;2023-05-03T14:46:21;3.80;;;2.40;;
65035;SDS011;51603;49.300;8.880;2023-05-03T14:48:47;4.17;;;2.23;;
65035;SDS011;51603;49.300;8.880;2023-05-03T14:51:12;4.00;;;2.70;;
65035;SDS011;51603;49.300;8.880;2023-05-03T14:53:38;2.97;;;2.30;;
65035;SDS011;51603;49.300;8.880;2023-05-03T14:56:04;5.60;;;3.00;;
65035;SDS011;51603;49.300;8.880;2023-05-03T14:58:30;4.00;;;2.90;;
65035;SDS011;51603;49.300;8.880;2023-05-03T15:00:56;5.13;;;2.60;;